createdAt,value
2018-07-23T00:00:59.563Z,8.20
2018-07-23T00:03:28.908Z,6.30
2018-07-23T00:05:58.064Z,7.27
2018-07-23T00:08:26.867Z,6.00
2018-07-23T00:10:55.534Z,7.90
2018-07-23T00:13:23.867Z,6.40
2018-07-23T00:15:52.661Z,5.43
2018-07-23T00:18:21.674Z,5.57
2018-07-23T00:20:51.987Z,5.60
2018-07-23T00:23:21.084Z,5.97
2018-07-23T00:25:50.281Z,6.37
2018-07-23T00:28:19.307Z,6.30
2018-07-23T00:30:48.271Z,6.70
2018-07-23T00:33:17.161Z,6.43
2018-07-23T00:35:45.958Z,8.57
2018-07-23T00:38:14.851Z,6.40
2018-07-23T00:40:43.701Z,6.37
2018-07-23T00:43:12.728Z,7.53
2018-07-23T00:45:41.736Z,6.00
2018-07-23T00:48:10.639Z,6.10
2018-07-23T00:50:39.622Z,6.20
2018-07-23T00:53:08.915Z,6.20
2018-07-23T00:55:37.768Z,5.90
2018-07-23T00:58:06.779Z,6.97
2018-07-23T01:00:35.781Z,6.70
2018-07-23T01:03:05.940Z,5.63
2018-07-23T01:05:36.305Z,6.93
2018-07-23T01:08:05.606Z,7.10
2018-07-23T01:10:34.522Z,7.50
2018-07-23T01:13:03.353Z,7.20
2018-07-23T01:15:32.180Z,7.00
2018-07-23T01:18:01.338Z,9.33
2018-07-23T01:20:30.242Z,8.77
2018-07-23T01:22:59.608Z,7.10
2018-07-23T01:25:28.580Z,6.37
2018-07-23T01:27:57.450Z,7.30
2018-07-23T01:30:26.348Z,8.03
2018-07-23T01:32:55.251Z,9.70
2018-07-23T01:35:24.181Z,7.60
2018-07-23T01:37:52.958Z,7.70
2018-07-23T01:40:21.684Z,7.87
2018-07-23T01:42:50.904Z,7.67
2018-07-23T01:45:20.082Z,8.10
2018-07-23T01:47:49.299Z,7.87
2018-07-23T01:50:18.326Z,7.60
2018-07-23T01:52:47.454Z,7.03
2018-07-23T01:55:16.853Z,8.70
2018-07-23T01:57:45.673Z,6.90
2018-07-23T02:00:14.724Z,7.13
2018-07-23T02:02:43.692Z,8.30
2018-07-23T02:05:13.055Z,7.10
2018-07-23T02:07:42.296Z,7.90
2018-07-23T02:10:10.933Z,10.33
2018-07-23T02:12:40.080Z,7.80
2018-07-23T02:15:09.475Z,8.17
2018-07-23T02:17:38.761Z,7.63
2018-07-23T02:20:07.781Z,8.67
2018-07-23T02:22:36.983Z,10.53
2018-07-23T02:25:09.636Z,8.63
2018-07-23T02:27:39.203Z,7.90
2018-07-23T02:30:08.505Z,7.93
2018-07-23T02:32:37.848Z,8.40
2018-07-23T02:35:06.904Z,8.10
2018-07-23T02:37:36.219Z,10.60
2018-07-23T02:40:05.352Z,8.47
2018-07-23T02:42:34.696Z,7.67
2018-07-23T02:45:04.895Z,8.40
2018-07-23T02:47:34.274Z,8.87
2018-07-23T02:50:03.307Z,7.60
2018-07-23T02:52:32.408Z,8.73
2018-07-23T02:55:01.269Z,9.67
2018-07-23T02:57:30.247Z,8.07
2018-07-23T02:59:59.436Z,8.27
2018-07-23T03:02:28.623Z,9.37
2018-07-23T03:04:57.444Z,9.23
2018-07-23T03:07:26.553Z,9.77
2018-07-23T03:09:55.586Z,10.40
2018-07-23T03:12:24.464Z,9.80
2018-07-23T03:14:53.538Z,9.20
2018-07-23T03:17:22.307Z,12.30
2018-07-23T03:19:51.939Z,9.13
2018-07-23T03:22:20.816Z,9.70
2018-07-23T03:24:48.891Z,10.23
2018-07-23T03:27:18.070Z,9.17
2018-07-23T03:29:46.995Z,9.20
2018-07-23T03:32:16.393Z,9.30
2018-07-23T03:34:46.399Z,11.10
2018-07-23T03:37:15.420Z,10.07
2018-07-23T03:39:44.548Z,9.20
2018-07-23T03:42:13.871Z,8.97
2018-07-23T03:44:42.996Z,8.77
2018-07-23T03:47:12.008Z,12.67
2018-07-23T03:49:41.205Z,10.00
2018-07-23T03:52:10.266Z,15.20
2018-07-23T03:54:39.503Z,10.50
2018-07-23T03:57:08.613Z,10.17
2018-07-23T03:59:37.464Z,11.40
2018-07-23T04:02:06.294Z,10.63
2018-07-23T04:04:35.348Z,11.40
2018-07-23T04:07:03.814Z,12.50
2018-07-23T04:09:32.681Z,10.80
2018-07-23T04:12:02.006Z,12.00
2018-07-23T04:14:30.779Z,9.10
2018-07-23T04:17:00.017Z,9.63
2018-07-23T04:19:29.108Z,8.83
2018-07-23T04:21:58.221Z,10.57
2018-07-23T04:24:28.677Z,12.37
2018-07-23T04:26:57.368Z,10.60
2018-07-23T04:29:26.310Z,10.30
2018-07-23T04:31:55.195Z,11.07
2018-07-23T04:34:24.162Z,11.20
2018-07-23T04:36:53.174Z,9.10
2018-07-23T04:39:21.514Z,11.30
2018-07-23T04:41:50.379Z,9.80
2018-07-23T04:44:19.873Z,11.77
2018-07-23T04:46:48.799Z,9.10
2018-07-23T04:49:17.548Z,12.40
2018-07-23T04:51:45.923Z,10.63
2018-07-23T04:54:14.236Z,10.10
2018-07-23T04:56:43.007Z,10.33
2018-07-23T04:59:12.057Z,10.10
2018-07-23T05:01:41.045Z,13.00
2018-07-23T05:04:09.926Z,10.17
2018-07-23T05:06:38.711Z,12.20
2018-07-23T05:09:09.873Z,11.83
2018-07-23T05:11:38.391Z,13.67
2018-07-23T05:14:07.223Z,12.70
2018-07-23T05:16:36.349Z,11.20
2018-07-23T05:19:05.384Z,10.97
2018-07-23T05:21:33.764Z,11.80
2018-07-23T05:24:02.482Z,11.67
2018-07-23T05:26:30.884Z,15.53
2018-07-23T05:28:59.247Z,10.73
2018-07-23T05:31:27.588Z,11.67
2018-07-23T05:33:56.027Z,11.27
2018-07-23T05:36:24.419Z,12.93
2018-07-23T05:38:52.996Z,12.43
2018-07-23T05:41:27.892Z,12.50
2018-07-23T05:43:56.312Z,13.27
2018-07-23T05:46:25.032Z,12.43
2018-07-23T05:48:53.995Z,12.10
2018-07-23T05:51:22.436Z,12.00
2018-07-23T05:53:51.523Z,10.20
2018-07-23T05:56:19.928Z,10.93
2018-07-23T05:58:48.732Z,11.27
2018-07-23T06:01:17.200Z,10.50
2018-07-23T06:03:45.700Z,14.07
2018-07-23T06:06:14.933Z,13.60
2018-07-23T06:08:43.940Z,11.00
2018-07-23T06:11:12.602Z,11.63
2018-07-23T06:13:41.212Z,12.87
2018-07-23T06:16:10.164Z,12.43
2018-07-23T06:18:38.244Z,12.07
2018-07-23T06:21:06.335Z,14.33
2018-07-23T06:23:35.100Z,13.03
2018-07-23T06:26:03.179Z,13.20
2018-07-23T06:28:31.392Z,13.00
2018-07-23T06:30:59.733Z,14.30
2018-07-23T06:33:28.111Z,12.10
2018-07-23T06:35:56.722Z,14.43
2018-07-23T06:38:25.671Z,12.57
2018-07-23T06:40:53.904Z,14.73
2018-07-23T06:43:22.376Z,12.10
2018-07-23T06:45:50.756Z,11.47
2018-07-23T06:48:19.514Z,11.20
2018-07-23T06:50:48.534Z,12.50
2018-07-23T06:53:17.330Z,12.03
2018-07-23T06:55:46.564Z,11.73
2018-07-23T06:58:14.907Z,10.13
2018-07-23T07:00:43.297Z,19.20
2018-07-23T07:03:11.899Z,14.50
2018-07-23T07:05:40.212Z,12.60
2018-07-23T07:08:08.505Z,11.07
2018-07-23T07:10:36.853Z,12.37
2018-07-23T07:13:05.202Z,12.03
2018-07-23T07:15:33.585Z,10.23
2018-07-23T07:18:02.112Z,12.93
2018-07-23T07:20:30.444Z,12.40
2018-07-23T07:22:58.798Z,12.90
2018-07-23T07:25:27.517Z,15.50
2018-07-23T07:27:55.977Z,12.70
2018-07-23T07:30:24.311Z,15.40
2018-07-23T07:32:52.371Z,12.47
2018-07-23T07:35:20.562Z,14.20
2018-07-23T07:37:48.894Z,11.47
2018-07-23T07:40:17.304Z,18.07
2018-07-23T07:42:45.375Z,12.20
2018-07-23T07:45:14.027Z,13.00
2018-07-23T07:47:42.403Z,13.17
2018-07-23T07:50:10.731Z,12.63
2018-07-23T07:52:39.064Z,13.03
2018-07-23T07:55:07.410Z,9.93
2018-07-23T07:57:35.747Z,10.70
2018-07-23T08:00:04.336Z,10.60
2018-07-23T08:02:32.712Z,9.90
2018-07-23T08:05:01.037Z,10.90
2018-07-23T08:07:29.387Z,10.97
2018-07-23T08:09:57.720Z,10.40
2018-07-23T08:12:26.355Z,10.37
2018-07-23T08:14:54.724Z,11.17
2018-07-23T08:17:22.784Z,11.23
2018-07-23T08:19:51.051Z,10.00
2018-07-23T08:22:19.153Z,17.30
2018-07-23T08:24:47.536Z,12.00
2018-07-23T08:27:16.016Z,11.33
2018-07-23T08:29:44.360Z,9.10
2018-07-23T08:32:12.805Z,9.87
2018-07-23T08:34:41.052Z,8.90
2018-07-23T08:37:09.408Z,12.10
2018-07-23T08:39:37.752Z,8.37
2018-07-23T08:42:06.128Z,11.20
2018-07-23T08:44:34.455Z,8.37
2018-07-23T08:47:03.500Z,8.83
2018-07-23T08:49:31.875Z,9.27
2018-07-23T08:52:00.256Z,9.83
2018-07-23T08:54:28.572Z,6.87
2018-07-23T08:56:56.656Z,8.33
2018-07-23T08:59:24.717Z,9.80
2018-07-23T09:01:52.907Z,7.43
2018-07-23T09:04:21.240Z,10.10
2018-07-23T09:06:49.555Z,7.00
2018-07-23T09:09:17.631Z,6.90
2018-07-23T09:11:45.692Z,10.97
2018-07-23T09:14:13.751Z,7.00
2018-07-23T09:16:42.208Z,6.87
2018-07-23T09:19:10.528Z,6.07
2018-07-23T09:21:38.599Z,6.80
2018-07-23T09:24:06.992Z,6.50
2018-07-23T09:26:35.327Z,5.77
2018-07-23T09:29:03.921Z,5.40
2018-07-23T09:31:32.288Z,6.07
2018-07-23T09:34:00.630Z,9.03
2018-07-23T09:36:28.959Z,7.23
2018-07-23T09:38:57.472Z,7.10
2018-07-23T09:41:26.017Z,6.03
2018-07-23T09:43:54.355Z,5.33
2018-07-23T09:46:22.688Z,5.67
2018-07-23T09:48:51.204Z,5.73
2018-07-23T09:51:19.794Z,6.10
2018-07-23T09:53:48.100Z,6.17
2018-07-23T09:56:16.451Z,5.37
2018-07-23T09:58:44.799Z,6.13
2018-07-23T10:01:17.263Z,5.93
2018-07-23T10:03:45.471Z,8.37
2018-07-23T10:06:13.788Z,6.53
2018-07-23T10:08:42.128Z,6.60
2018-07-23T10:11:10.504Z,6.73
2018-07-23T10:13:38.894Z,6.03
2018-07-23T10:16:07.276Z,5.60
2018-07-23T10:18:35.605Z,5.80
2018-07-23T10:21:03.987Z,7.57
2018-07-23T10:23:32.310Z,6.60
2018-07-23T10:26:00.744Z,5.23
2018-07-23T10:28:29.251Z,4.83
2018-07-23T10:30:57.572Z,5.50
2018-07-23T10:33:25.911Z,5.70
2018-07-23T10:35:54.623Z,4.97
2018-07-23T10:38:22.956Z,6.37
2018-07-23T10:40:51.004Z,5.30
2018-07-23T10:43:19.395Z,4.63
2018-07-23T10:45:47.721Z,15.33
2018-07-23T10:48:16.044Z,6.80
2018-07-23T10:50:44.397Z,4.50
2018-07-23T10:53:12.740Z,4.60
2018-07-23T10:55:41.099Z,4.53
2018-07-23T10:58:09.171Z,5.20
2018-07-23T11:00:37.499Z,5.47
2018-07-23T11:03:05.869Z,4.93
2018-07-23T11:05:35.060Z,4.67
2018-07-23T11:08:03.672Z,4.47
2018-07-23T11:10:32.301Z,5.30
2018-07-23T11:13:00.629Z,6.23
2018-07-23T11:15:29.089Z,4.43
2018-07-23T11:17:57.420Z,4.77
2018-07-23T11:20:25.496Z,4.90
2018-07-23T11:22:53.833Z,4.77
2018-07-23T11:25:38.811Z,4.90
2018-07-23T11:27:51.000Z,5.70
2018-07-23T11:30:19.345Z,4.40
2018-07-23T11:32:47.680Z,4.90
2018-07-23T11:35:16.026Z,5.27
2018-07-23T11:37:44.352Z,4.63
2018-07-23T11:40:12.863Z,4.20
2018-07-23T11:42:41.202Z,4.67
2018-07-23T11:45:09.562Z,4.70
2018-07-23T11:47:37.910Z,3.80
2018-07-23T11:50:06.243Z,4.90
2018-07-23T11:52:34.672Z,4.73
2018-07-23T11:55:03.024Z,5.77
2018-07-23T11:57:31.425Z,5.00
2018-07-23T11:59:59.832Z,4.60
2018-07-23T12:02:28.191Z,5.20
2018-07-23T12:04:56.525Z,5.27
2018-07-23T12:07:24.866Z,5.00
2018-07-23T12:09:53.204Z,4.47
2018-07-23T12:12:21.536Z,5.47
2018-07-23T12:14:50.169Z,4.80
2018-07-23T12:17:18.577Z,10.70
2018-07-23T12:19:46.955Z,5.20
2018-07-23T12:22:16.067Z,5.50
2018-07-23T12:24:44.814Z,5.80
2018-07-23T12:27:13.128Z,5.40
2018-07-23T12:29:41.463Z,4.73
2018-07-23T12:32:09.804Z,5.40
2018-07-23T12:34:38.316Z,5.90
2018-07-23T12:37:06.635Z,5.93
2018-07-23T12:39:35.144Z,5.30
2018-07-23T12:42:03.666Z,5.17
2018-07-23T12:44:32.000Z,4.73
2018-07-23T12:47:00.358Z,5.30
2018-07-23T12:49:28.675Z,5.97
2018-07-23T12:51:57.015Z,4.57
2018-07-23T12:54:25.332Z,4.50
2018-07-23T12:56:53.676Z,4.77
2018-07-23T12:59:22.207Z,4.90
2018-07-23T13:01:50.884Z,5.23
2018-07-23T13:04:19.350Z,4.80
2018-07-23T13:06:47.908Z,4.53
2018-07-23T13:09:16.243Z,4.50
2018-07-23T13:11:44.868Z,4.77
2018-07-23T13:14:13.604Z,4.23
2018-07-23T13:16:41.940Z,4.70
2018-07-23T13:19:10.485Z,4.10
2018-07-23T13:21:39.264Z,4.53
2018-07-23T13:24:07.684Z,4.27
2018-07-23T13:26:36.405Z,4.00
2018-07-23T13:29:04.796Z,4.17
2018-07-23T13:31:32.855Z,3.90
2018-07-23T13:34:01.182Z,4.40
2018-07-23T13:36:29.712Z,3.80
2018-07-23T13:38:58.080Z,3.90
2018-07-23T13:41:26.417Z,3.73
2018-07-23T13:43:54.763Z,4.03
2018-07-23T13:46:23.154Z,5.00
2018-07-23T13:48:51.635Z,5.47
2018-07-23T13:51:19.991Z,5.00
2018-07-23T13:53:48.303Z,5.03
2018-07-23T13:56:16.620Z,4.53
2018-07-23T13:58:44.984Z,8.10
2018-07-23T14:01:13.326Z,4.67
2018-07-23T14:03:41.643Z,7.00
2018-07-23T14:06:09.988Z,4.33
2018-07-23T14:08:38.340Z,5.07
2018-07-23T14:11:06.676Z,4.17
2018-07-23T14:13:35.025Z,3.90
2018-07-23T14:16:03.338Z,4.07
2018-07-23T14:18:31.696Z,4.90
2018-07-23T14:21:00.024Z,3.90
2018-07-23T14:23:28.563Z,4.43
2018-07-23T14:25:56.899Z,4.70
2018-07-23T14:28:25.256Z,4.77
2018-07-23T14:30:53.589Z,3.77
2018-07-23T14:33:21.892Z,4.77
2018-07-23T14:35:50.260Z,6.83
2018-07-23T14:38:18.640Z,4.33
2018-07-23T14:40:46.960Z,4.40
2018-07-23T14:43:15.024Z,4.43
2018-07-23T14:45:43.381Z,4.77
2018-07-23T14:48:11.712Z,6.90
2018-07-23T14:50:40.610Z,5.17
2018-07-23T14:53:09.294Z,5.43
2018-07-23T14:55:37.640Z,4.67
2018-07-23T14:58:05.980Z,6.93
2018-07-23T15:00:34.324Z,5.23
2018-07-23T15:03:03.094Z,4.70
2018-07-23T15:05:32.009Z,5.23
2018-07-23T15:08:00.374Z,4.50
2018-07-23T15:10:28.912Z,4.10
2018-07-23T15:12:57.452Z,4.47
2018-07-23T15:15:25.815Z,4.50
2018-07-23T15:17:54.293Z,5.30
2018-07-23T15:20:22.863Z,5.23
2018-07-23T15:22:51.111Z,4.63
2018-07-23T15:25:19.557Z,5.23
2018-07-23T15:27:48.244Z,6.73
2018-07-23T15:30:16.956Z,5.90
2018-07-23T15:32:45.821Z,7.90
2018-07-23T15:35:14.476Z,4.93
2018-07-23T15:37:43.210Z,5.17
2018-07-23T15:40:11.922Z,4.40
2018-07-23T15:42:40.661Z,5.07
2018-07-23T15:45:09.595Z,6.10
2018-07-23T15:47:38.256Z,4.47
2018-07-23T15:50:06.999Z,4.83
2018-07-23T15:52:35.819Z,5.53
2018-07-23T15:55:04.571Z,4.33
2018-07-23T15:57:33.383Z,4.50
2018-07-23T16:00:01.852Z,4.87
2018-07-23T16:02:30.631Z,7.47
2018-07-23T16:04:59.422Z,14.07
2018-07-23T16:07:27.623Z,5.10
2018-07-23T16:09:56.372Z,6.00
2018-07-23T16:12:25.222Z,9.50
2018-07-23T16:14:53.948Z,4.90
2018-07-23T16:17:22.335Z,12.10
2018-07-23T16:19:50.948Z,4.30
2018-07-23T16:22:19.507Z,4.57
2018-07-23T16:24:48.138Z,5.97
2018-07-23T16:27:16.783Z,5.23
2018-07-23T16:29:45.474Z,13.60
2018-07-23T16:32:14.272Z,5.53
2018-07-23T16:34:43.211Z,4.73
2018-07-23T16:37:11.999Z,11.83
2018-07-23T16:39:40.636Z,9.57
2018-07-23T16:42:09.480Z,9.20
2018-07-23T16:44:38.147Z,11.50
2018-07-23T16:47:06.912Z,17.27
2018-07-23T16:49:35.787Z,20.80
2018-07-23T16:52:04.033Z,12.03
2018-07-23T16:54:32.732Z,10.10
2018-07-23T16:57:01.353Z,8.83
2018-07-23T16:59:29.940Z,16.67
2018-07-23T17:01:58.589Z,24.67
2018-07-23T17:04:27.140Z,19.10
2018-07-23T17:06:56.262Z,41.73
2018-07-23T17:09:25.055Z,18.40
2018-07-23T17:11:53.644Z,15.43
2018-07-23T17:14:22.287Z,5.43
2018-07-23T17:16:50.877Z,12.40
2018-07-23T17:19:19.404Z,9.87
2018-07-23T17:21:47.980Z,11.10
2018-07-23T17:24:16.320Z,8.70
2018-07-23T17:26:44.735Z,22.23
2018-07-23T17:29:13.080Z,19.57
2018-07-23T17:31:41.940Z,6.43
2018-07-23T17:34:10.647Z,10.03
2018-07-23T17:36:39.127Z,8.43
2018-07-23T17:39:10.808Z,5.67
2018-07-23T17:41:39.068Z,5.93
2018-07-23T17:44:07.424Z,8.00
2018-07-23T17:46:36.053Z,5.67
2018-07-23T17:49:04.706Z,5.77
2018-07-23T17:51:33.504Z,7.93
2018-07-23T17:54:02.134Z,8.37
2018-07-23T17:56:30.564Z,14.23
2018-07-23T17:58:59.134Z,11.03
2018-07-23T18:01:27.479Z,18.60
2018-07-23T18:03:56.636Z,15.23
2018-07-23T18:06:25.398Z,15.40
2018-07-23T18:08:53.551Z,18.20
2018-07-23T18:11:22.240Z,30.90
2018-07-23T18:13:51.010Z,25.00
2018-07-23T18:16:19.885Z,27.80
2018-07-23T18:18:48.535Z,15.93
2018-07-23T18:21:17.054Z,19.70
2018-07-23T18:23:45.250Z,17.30
2018-07-23T18:26:13.896Z,33.87
2018-07-23T18:28:42.443Z,19.13
2018-07-23T18:31:11.135Z,10.30
2018-07-23T18:33:39.383Z,12.33
2018-07-23T18:36:08.019Z,15.37
2018-07-23T18:38:36.676Z,22.40
2018-07-23T18:41:05.351Z,14.80
2018-07-23T18:43:34.036Z,26.07
2018-07-23T18:46:02.723Z,23.43
2018-07-23T18:49:41.232Z,24.40
2018-07-23T18:52:09.331Z,28.00
2018-07-23T18:54:38.295Z,25.23
2018-07-23T18:57:07.295Z,25.60
2018-07-23T18:59:35.950Z,17.50
2018-07-23T19:02:05.993Z,8.10
2018-07-23T19:04:34.673Z,28.33
2018-07-23T19:07:03.044Z,15.80
2018-07-23T19:09:31.656Z,20.33
2018-07-23T19:12:00.672Z,13.07
2018-07-23T19:14:29.312Z,15.53
2018-07-23T19:16:58.363Z,17.70
2018-07-23T19:19:27.095Z,16.30
2018-07-23T19:21:55.205Z,32.40
2018-07-23T19:24:23.764Z,22.80
2018-07-23T19:26:52.425Z,20.00
2018-07-23T19:29:21.206Z,25.30
2018-07-23T19:31:49.693Z,24.73
2018-07-23T19:34:18.372Z,21.10
2018-07-23T19:36:46.588Z,28.40
2018-07-23T19:39:16.380Z,28.47
2018-07-23T19:41:44.809Z,14.70
2018-07-23T19:44:13.235Z,21.10
2018-07-23T19:46:42.036Z,22.50
2018-07-23T19:49:10.572Z,28.13
2018-07-23T19:51:39.409Z,18.47
2018-07-23T19:54:08.745Z,21.90
2018-07-23T19:56:37.415Z,27.27
2018-07-23T19:59:06.123Z,19.20
2018-07-23T20:01:34.820Z,20.23
2018-07-23T20:04:03.284Z,13.30
2018-07-23T20:06:31.826Z,19.23
2018-07-23T20:09:02.236Z,28.93
2018-07-23T20:11:31.038Z,19.03
2018-07-23T20:13:59.343Z,19.37
2018-07-23T20:16:27.878Z,16.67
2018-07-23T20:18:56.397Z,33.37
2018-07-23T20:21:24.974Z,9.30
2018-07-23T20:23:53.369Z,12.23
2018-07-23T20:26:22.021Z,18.80
2018-07-23T20:28:50.610Z,27.33
2018-07-23T20:31:18.996Z,15.73
2018-07-23T20:33:47.424Z,24.30
2018-07-23T20:36:16.232Z,14.73
2018-07-23T20:38:44.566Z,9.03
2018-07-23T20:41:12.918Z,18.63
2018-07-23T20:43:41.100Z,12.93
2018-07-23T20:46:09.594Z,10.13
2018-07-23T20:48:38.425Z,9.60
2018-07-23T20:51:06.811Z,11.77
2018-07-23T20:53:35.463Z,9.33
2018-07-23T20:56:04.295Z,10.93
2018-07-23T20:58:32.660Z,9.57
2018-07-23T21:01:01.454Z,10.00
2018-07-23T21:03:30.115Z,8.87
2018-07-23T21:05:58.505Z,8.93
2018-07-23T21:08:27.299Z,10.27
2018-07-23T21:10:56.084Z,10.80
2018-07-23T21:13:24.633Z,9.60
2018-07-23T21:15:53.019Z,11.10
2018-07-23T21:18:21.380Z,9.80
2018-07-23T21:20:49.544Z,17.03
2018-07-23T21:23:17.885Z,9.70
2018-07-23T21:25:46.621Z,11.53
2018-07-23T21:28:15.465Z,9.97
2018-07-23T21:30:44.136Z,13.00
2018-07-23T21:33:12.496Z,9.00
2018-07-23T21:35:40.819Z,10.80
2018-07-23T21:38:09.197Z,9.07
2018-07-23T21:40:38.053Z,12.40
2018-07-23T21:43:06.504Z,9.70
2018-07-23T21:45:34.759Z,9.60
2018-07-23T21:48:03.225Z,9.73
2018-07-23T21:50:32.518Z,9.47
2018-07-23T21:53:01.028Z,9.87
2018-07-23T21:55:29.436Z,10.87
2018-07-23T21:57:58.075Z,11.77
2018-07-23T22:00:26.835Z,9.00
2018-07-23T22:02:55.643Z,8.73
2018-07-23T22:05:24.000Z,9.90
2018-07-23T22:07:52.352Z,10.50
2018-07-23T22:10:20.784Z,10.27
2018-07-23T22:12:49.352Z,9.07
2018-07-23T22:15:18.033Z,10.23
2018-07-23T22:17:46.728Z,11.00
2018-07-23T22:20:15.496Z,9.50
2018-07-23T22:22:44.140Z,13.40
2018-07-23T22:25:12.295Z,10.20
2018-07-23T22:27:40.407Z,10.43
2018-07-23T22:30:08.789Z,9.70
2018-07-23T22:32:37.687Z,9.47
2018-07-23T22:35:06.048Z,10.80
2018-07-23T22:37:34.755Z,10.07
2018-07-23T22:40:03.170Z,11.53
2018-07-23T22:42:33.512Z,10.50
2018-07-23T22:45:01.864Z,11.30
2018-07-23T22:47:30.244Z,10.23
2018-07-23T22:49:58.624Z,11.20
2018-07-23T22:52:27.095Z,12.03
2018-07-23T22:54:55.496Z,11.60
2018-07-23T22:57:23.816Z,11.17
2018-07-23T22:59:51.999Z,10.53
2018-07-23T23:02:20.464Z,10.97
2018-07-23T23:04:48.542Z,12.70
2018-07-23T23:07:16.612Z,11.20
2018-07-23T23:09:45.215Z,9.73
2018-07-23T23:12:14.077Z,10.13
2018-07-23T23:14:42.131Z,9.67
2018-07-23T23:17:10.487Z,10.83
2018-07-23T23:19:39.361Z,10.70
2018-07-23T23:22:08.371Z,9.60
2018-07-23T23:24:37.918Z,11.10
2018-07-23T23:27:06.343Z,12.00
2018-07-23T23:29:34.688Z,9.60
2018-07-23T23:32:03.171Z,9.93
2018-07-23T23:34:31.940Z,10.17
2018-07-23T23:37:00.290Z,10.90
2018-07-23T23:39:29.019Z,10.10
2018-07-23T23:41:58.056Z,10.07
2018-07-23T23:44:26.531Z,9.33
2018-07-23T23:46:54.916Z,9.77
2018-07-23T23:49:23.248Z,8.50
2018-07-23T23:51:51.327Z,9.40
2018-07-23T23:54:20.358Z,8.40
2018-07-23T23:56:49.453Z,9.47
2018-07-23T23:59:17.811Z,9.73
